Etusivu
METAR-TAF:

METAR-TAF

Lentoasemat :

Wittmund, Saksa

Leveyspiiri: 53-33N, Pituuspiiri: 007-40E, korkeus merenpinnasta: 8 m

Tämänhetkinen sää

Tämä raportti tehtiin 26 minuuttia sitten, kello 00.20 UTC
Tuuli 6 kn lännestä/lounaasta
Lämpötila 5°C
Kosteus 87%
Ilmanpaine 1014 hPa
Näkyvyys: 7000 m

METAR: ETNT 020020Z AUTO 25006KT 7000 // ////// 05/03 Q1014 ///

Aika: 02:46 (00:46 UTC)

Sääennuste

Tämä raportti tehtiin 2 tuntia ja 46 minuuttia sitten, kello 22.00 UTC
Ennuste voimassa 01. päivästä klo 23 UTC - 02. päivään klo 08 UTC
Tuuli 8 kn lännestä/lounaasta
Näkyvyys 10 km tai enemmän
Hajanaisia pilviä 1500 ft:n korkeudessa
Hajonneita pilviä 4000 ft:n korkeudessa

TAF: ETNT 012200Z 0123/0208 25008KT 9999 NSW SCT015 BKN040 CANCEL BY ETGL

Säähavainnot ja -ennusteet yli 4000 lentoasemalta (METAR- ja TAF-raportit).

Käytössä olevat sääasemat on merkitty karttaan keltaisilla ja punaisilla pisteillä.

Aseta hiiri pisteen päälle nähdäksesi sääaseman nimen.

Klikkaa sitten nähdäksesi säähavainnot ja -ennusteet.

Kartan vaihtaminen: klikkaa mustalla rastilla varustettuja vihreitä pisteitä, niin voit zoomata sisään; viivalla varustettua vihreää pistettä, niin voit zoomata ulos tai vihreitä nuolia, niin pääset viereisille kartoille.


METAR-TAF: